createdAt,value
2022-09-22T00:01:29.046Z,9.07
2022-09-22T00:03:58.813Z,8.42
2022-09-22T00:06:35.243Z,9.07
2022-09-22T00:09:03.503Z,9.04
2022-09-22T00:11:33.714Z,7.85
2022-09-22T00:14:07.999Z,6.34
2022-09-22T00:16:41.172Z,8.96
2022-09-22T00:19:15.049Z,8.02
2022-09-22T00:21:42.398Z,4.85
2022-09-22T00:24:09.484Z,6.90
2022-09-22T00:26:38.347Z,6.55
2022-09-22T00:29:09.599Z,8.08
2022-09-22T00:31:42.143Z,6.21
2022-09-22T00:34:15.298Z,7.34
2022-09-22T00:36:42.840Z,8.01
2022-09-22T00:39:10.016Z,8.89
2022-09-22T00:41:41.003Z,7.70
2022-09-22T00:44:26.755Z,8.84
2022-09-22T00:46:59.613Z,8.81
2022-09-22T00:49:38.506Z,8.80
2022-09-22T00:52:06.080Z,8.78
2022-09-22T00:54:34.435Z,8.71
2022-09-22T00:57:24.327Z,8.14
2022-09-22T00:59:52.784Z,8.70
2022-09-22T01:02:21.383Z,7.67
2022-09-22T01:04:52.221Z,8.68
2022-09-22T01:07:23.152Z,8.69
2022-09-22T01:09:50.556Z,8.30
2022-09-22T01:12:17.699Z,7.83
2022-09-22T01:15:12.568Z,8.70
2022-09-22T01:17:39.512Z,8.71
2022-09-22T01:20:18.827Z,8.68
2022-09-22T01:23:00.815Z,8.65
2022-09-22T01:26:06.351Z,8.69
2022-09-22T01:29:17.886Z,8.38
2022-09-22T01:32:05.296Z,8.19
2022-09-22T01:34:50.609Z,8.76
2022-09-22T01:37:52.289Z,8.67
2022-09-22T01:40:28.135Z,8.68
2022-09-22T01:43:22.041Z,7.94
2022-09-22T01:45:49.828Z,8.62
2022-09-22T01:48:31.162Z,8.20
2022-09-22T01:51:08.822Z,3.40
2022-09-22T01:53:43.273Z,6.80
2022-09-22T01:56:13.265Z,8.75
2022-09-22T01:58:54.764Z,6.33
2022-09-22T02:01:27.574Z,4.49
2022-09-22T02:03:57.425Z,8.75
2022-09-22T02:06:31.371Z,6.89
2022-09-22T02:09:11.954Z,8.79
2022-09-22T02:11:40.275Z,6.92
2022-09-22T02:14:07.352Z,8.81
2022-09-22T02:16:35.222Z,7.85
2022-09-22T02:19:17.697Z,8.87
2022-09-22T02:21:47.210Z,6.30
2022-09-22T02:24:44.468Z,6.37
2022-09-22T02:27:26.715Z,6.72
2022-09-22T02:29:59.211Z,8.41
2022-09-22T02:32:27.518Z,9.07
2022-09-22T02:34:56.003Z,8.39
2022-09-22T02:37:49.930Z,9.06
2022-09-22T02:41:07.823Z,9.07
2022-09-22T02:44:00.170Z,8.11
2022-09-22T02:46:37.815Z,9.11
2022-09-22T02:49:09.882Z,6.75
2022-09-22T02:51:36.925Z,7.38
2022-09-22T02:54:03.919Z,6.61
2022-09-22T02:56:30.863Z,4.75
2022-09-22T02:58:58.601Z,4.02
2022-09-22T03:01:26.380Z,8.35
2022-09-22T03:03:53.886Z,9.13
2022-09-22T03:06:20.803Z,6.78
2022-09-22T03:08:47.875Z,7.46
2022-09-22T03:11:14.853Z,8.10
2022-09-22T03:13:41.805Z,5.81
2022-09-22T03:16:09.577Z,9.13
2022-09-22T03:18:36.566Z,8.23
2022-09-22T03:21:03.714Z,5.56
2022-09-22T03:23:30.661Z,8.47
2022-09-22T03:25:57.726Z,9.13
2022-09-22T03:28:24.778Z,8.64
2022-09-22T03:30:51.747Z,7.18
2022-09-22T03:33:18.828Z,9.15
2022-09-22T03:35:45.726Z,5.16
2022-09-22T03:38:12.934Z,6.81
2022-09-22T03:40:39.929Z,7.07
2022-09-22T03:43:06.906Z,6.13
2022-09-22T03:45:33.867Z,7.57
2022-09-22T03:48:00.855Z,6.40
2022-09-22T03:50:28.663Z,6.25
2022-09-22T03:52:57.319Z,8.83
2022-09-22T03:55:25.684Z,8.63
2022-09-22T03:57:52.783Z,6.30
2022-09-22T04:00:19.871Z,7.24
2022-09-22T04:02:46.855Z,8.55
2022-09-22T04:05:13.799Z,6.76
2022-09-22T04:07:40.768Z,6.57
2022-09-22T04:10:08.646Z,9.18
2022-09-22T04:12:35.631Z,7.13
2022-09-22T04:15:02.474Z,6.98
2022-09-22T04:17:29.456Z,6.88
2022-09-22T04:19:56.569Z,6.56
2022-09-22T04:22:23.676Z,9.17
2022-09-22T04:24:50.653Z,6.81
2022-09-22T04:27:20.360Z,7.55
2022-09-22T04:29:48.307Z,9.22
2022-09-22T04:32:16.524Z,4.40
2022-09-22T04:34:43.514Z,7.99
2022-09-22T04:37:11.999Z,9.24
2022-09-22T04:39:38.932Z,9.18
2022-09-22T04:42:06.363Z,9.18
2022-09-22T04:44:35.228Z,7.54
2022-09-22T04:47:02.617Z,4.44
2022-09-22T04:49:29.538Z,8.88
2022-09-22T04:51:56.512Z,6.55
2022-09-22T04:54:23.510Z,8.29
2022-09-22T04:56:50.428Z,4.09
2022-09-22T04:59:17.299Z,6.66
2022-09-22T05:01:44.340Z,5.74
2022-09-22T05:04:11.338Z,7.31
2022-09-22T05:06:38.760Z,9.28
2022-09-22T05:09:05.811Z,7.50
2022-09-22T05:11:33.124Z,7.17
2022-09-22T05:14:00.330Z,5.71
2022-09-22T05:16:27.411Z,7.04
2022-09-22T05:18:54.425Z,6.07
2022-09-22T05:21:21.314Z,7.52
2022-09-22T05:23:48.241Z,4.41
2022-09-22T05:26:15.179Z,8.83
2022-09-22T05:28:42.054Z,8.15
2022-09-22T05:31:08.990Z,6.02
2022-09-22T05:33:35.947Z,8.06
2022-09-22T05:36:03.893Z,5.74
2022-09-22T05:38:31.319Z,8.63
2022-09-22T05:40:58.281Z,7.77
2022-09-22T05:43:25.158Z,7.31
2022-09-22T05:45:52.158Z,8.97
2022-09-22T05:48:20.054Z,5.65
2022-09-22T05:50:47.204Z,6.15
2022-09-22T05:53:15.066Z,5.69
2022-09-22T05:55:42.012Z,9.37
2022-09-22T05:58:12.806Z,9.55
2022-09-22T06:00:40.348Z,9.63
2022-09-22T06:03:07.809Z,7.63
2022-09-22T06:05:38.045Z,8.48
2022-09-22T06:08:07.589Z,8.83
2022-09-22T06:10:36.717Z,7.68
2022-09-22T06:13:09.186Z,9.80
2022-09-22T06:15:36.691Z,9.95
2022-09-22T06:18:11.833Z,8.00
2022-09-22T06:20:42.464Z,10.04
2022-09-22T06:23:09.452Z,4.87
2022-09-22T06:25:36.403Z,8.65
2022-09-22T06:28:09.164Z,10.12
2022-09-22T06:30:40.492Z,10.05
2022-09-22T06:33:09.184Z,10.06
2022-09-22T06:35:38.996Z,9.88
2022-09-22T06:38:07.738Z,8.62
2022-09-22T06:40:38.569Z,8.30
2022-09-22T06:43:12.364Z,1.89
2022-09-22T06:45:40.025Z,9.55
2022-09-22T06:48:10.055Z,9.47
2022-09-22T06:50:38.466Z,10.27
2022-09-22T06:53:11.693Z,10.40
2022-09-22T06:55:41.862Z,9.11
2022-09-22T06:58:09.508Z,10.30
2022-09-22T07:00:36.686Z,9.57
2022-09-22T07:03:13.926Z,10.39
2022-09-22T07:05:40.923Z,9.72
2022-09-22T07:08:09.198Z,8.87
2022-09-22T07:10:39.120Z,10.11
2022-09-22T07:13:06.472Z,9.85
2022-09-22T07:15:35.772Z,9.48
2022-09-22T07:18:03.717Z,4.79
2022-09-22T07:20:30.858Z,6.11
2022-09-22T07:23:01.054Z,9.08
2022-09-22T07:25:29.334Z,9.81
2022-09-22T07:27:59.506Z,9.69
2022-09-22T07:30:26.619Z,2.88
2022-09-22T07:32:53.632Z,8.96
2022-09-22T07:35:20.583Z,9.56
2022-09-22T07:37:47.548Z,9.37
2022-09-22T07:40:14.989Z,9.15
2022-09-22T07:42:41.928Z,9.78
2022-09-22T07:45:13.117Z,8.14
2022-09-22T07:47:59.122Z,7.59
2022-09-22T07:50:26.480Z,11.55
2022-09-22T07:52:54.458Z,11.60
2022-09-22T07:55:25.371Z,11.04
2022-09-22T07:58:00.702Z,11.15
2022-09-22T08:00:33.528Z,11.20
2022-09-22T08:03:01.632Z,10.85
2022-09-22T08:05:29.750Z,9.38
2022-09-22T08:08:02.538Z,10.11
2022-09-22T08:10:32.706Z,10.78
2022-09-22T08:13:00.515Z,10.20
2022-09-22T08:15:27.659Z,11.64
2022-09-22T08:17:58.629Z,11.71
2022-09-22T08:20:30.049Z,11.83
2022-09-22T08:23:03.454Z,7.88
2022-09-22T08:25:30.798Z,7.49
2022-09-22T08:27:57.979Z,7.56
2022-09-22T08:30:24.982Z,11.42
2022-09-22T08:32:52.306Z,11.31
2022-09-22T08:35:19.241Z,12.50
2022-09-22T08:37:49.578Z,12.56
2022-09-22T08:40:24.077Z,11.94
2022-09-22T08:42:55.797Z,10.28
2022-09-22T08:45:35.684Z,9.80
2022-09-22T08:48:40.379Z,11.10
2022-09-22T08:51:58.396Z,12.26
2022-09-22T08:54:34.864Z,11.79
2022-09-22T08:57:21.579Z,10.08
2022-09-22T08:59:55.148Z,11.03
2022-09-22T09:02:32.826Z,13.05
2022-09-22T09:05:23.792Z,13.12
2022-09-22T09:08:14.604Z,13.29
2022-09-22T09:10:54.563Z,7.98
2022-09-22T09:13:21.447Z,13.00
2022-09-22T09:16:05.277Z,12.10
2022-09-22T09:18:34.299Z,12.44
2022-09-22T09:21:06.916Z,11.24
2022-09-22T09:26:33.183Z,13.24
2022-09-22T09:29:07.517Z,13.65
2022-09-22T09:31:54.860Z,14.04
2022-09-22T09:34:25.485Z,11.51
2022-09-22T09:36:58.861Z,10.03
2022-09-22T09:39:35.030Z,14.09
2022-09-22T09:42:07.190Z,13.70
2022-09-22T09:44:40.335Z,13.71
2022-09-22T09:47:22.569Z,13.65
2022-09-22T09:49:52.986Z,7.47
2022-09-22T09:52:20.562Z,12.06
2022-09-22T09:54:47.934Z,12.54
2022-09-22T09:57:16.133Z,12.04
2022-09-22T10:00:06.334Z,12.50
2022-09-22T10:02:59.193Z,14.05
2022-09-22T10:05:27.580Z,13.46
2022-09-22T10:07:58.682Z,12.72
2022-09-22T10:10:41.477Z,13.43
2022-09-22T10:13:08.367Z,13.52
2022-09-22T10:15:39.869Z,12.69
2022-09-22T10:18:25.140Z,13.33
2022-09-22T10:21:19.879Z,13.40
2022-09-22T10:23:53.996Z,13.46
2022-09-22T10:26:30.644Z,13.34
2022-09-22T10:29:06.790Z,13.56
2022-09-22T10:31:35.927Z,6.40
2022-09-22T10:34:02.925Z,9.10
2022-09-22T10:36:31.334Z,14.06
2022-09-22T10:38:59.844Z,10.26
2022-09-22T10:41:34.340Z,12.43
2022-09-22T10:44:37.458Z,13.20
2022-09-22T10:47:26.916Z,14.36
2022-09-22T10:50:31.860Z,14.35
2022-09-22T10:53:07.320Z,14.16
2022-09-22T10:55:56.214Z,12.65
2022-09-22T10:58:43.190Z,11.54
2022-09-22T11:01:42.219Z,13.37
2022-09-22T11:04:30.723Z,13.89
2022-09-22T11:07:26.786Z,13.82
2022-09-22T11:10:40.915Z,13.82
2022-09-22T11:13:49.139Z,13.81
2022-09-22T11:16:42.524Z,12.69
2022-09-22T11:19:26.025Z,13.55
2022-09-22T11:22:10.589Z,11.52
2022-09-22T11:24:56.303Z,13.99
2022-09-22T11:27:36.814Z,11.07
2022-09-22T11:30:23.332Z,13.45
2022-09-22T11:33:17.693Z,14.18
2022-09-22T11:35:56.373Z,13.83
2022-09-22T11:38:41.646Z,14.04
2022-09-22T11:41:26.173Z,14.23
2022-09-22T11:44:32.479Z,14.37
2022-09-22T11:47:20.878Z,14.51
2022-09-22T11:50:05.434Z,14.63
2022-09-22T11:52:44.046Z,14.67
2022-09-22T11:55:23.846Z,14.51
2022-09-22T11:57:57.221Z,14.30
2022-09-22T12:00:24.495Z,13.87
2022-09-22T12:03:02.156Z,14.51
2022-09-22T12:05:42.533Z,14.54
2022-09-22T12:08:21.528Z,13.03
2022-09-22T12:10:50.425Z,13.32
2022-09-22T12:13:21.724Z,14.24
2022-09-22T12:16:31.281Z,14.21
2022-09-22T12:19:25.534Z,14.15
2022-09-22T12:22:05.800Z,14.09
2022-09-22T12:24:33.508Z,11.38
2022-09-22T12:27:11.318Z,13.51
2022-09-22T12:29:39.239Z,13.98
2022-09-22T12:32:06.507Z,12.42
2022-09-22T12:34:39.511Z,13.93
2022-09-22T12:37:27.288Z,12.36
2022-09-22T12:39:54.626Z,13.05
2022-09-22T12:42:34.657Z,13.66
2022-09-22T12:45:18.174Z,10.90
2022-09-22T12:47:51.678Z,11.60
2022-09-22T12:50:24.553Z,13.57
2022-09-22T12:52:51.464Z,13.52
2022-09-22T12:55:30.431Z,13.70
2022-09-22T12:58:02.817Z,13.63
2022-09-22T13:00:41.129Z,13.50
2022-09-22T13:03:26.442Z,13.64
2022-09-22T13:06:05.303Z,13.58
2022-09-22T13:08:32.202Z,13.61
2022-09-22T13:11:00.563Z,13.71
2022-09-22T13:13:31.237Z,13.63
2022-09-22T13:16:00.984Z,10.52
2022-09-22T13:18:40.117Z,13.48
2022-09-22T13:21:13.284Z,13.55
2022-09-22T13:23:53.137Z,13.49
2022-09-22T13:26:34.807Z,13.48
2022-09-22T13:29:18.259Z,13.58
2022-09-22T13:31:51.395Z,12.55
2022-09-22T13:34:32.354Z,13.08
2022-09-22T13:37:08.228Z,13.38
2022-09-22T13:39:42.273Z,13.70
2022-09-22T13:42:24.434Z,12.47
2022-09-22T13:45:30.589Z,13.66
2022-09-22T13:48:14.006Z,12.99
2022-09-22T13:51:05.926Z,13.44
2022-09-22T13:53:33.021Z,12.62
2022-09-22T13:56:00.240Z,10.86
2022-09-22T13:58:40.264Z,13.13
2022-09-22T14:01:19.960Z,13.38
2022-09-22T14:03:48.734Z,12.41
2022-09-22T14:06:18.713Z,12.94
2022-09-22T14:08:48.477Z,12.53
2022-09-22T14:11:24.793Z,13.49
2022-09-22T14:13:55.214Z,13.52
2022-09-22T14:16:42.672Z,13.30
2022-09-22T14:19:15.185Z,13.36
2022-09-22T14:21:56.390Z,13.49
2022-09-22T14:24:24.268Z,12.50
2022-09-22T14:27:04.701Z,13.26
2022-09-22T14:29:34.884Z,13.41
2022-09-22T14:32:22.685Z,11.68
2022-09-22T14:34:52.534Z,13.24
2022-09-22T14:37:26.904Z,13.30
2022-09-22T14:39:56.033Z,13.09
2022-09-22T14:42:29.707Z,13.27
2022-09-22T14:45:27.703Z,13.22
2022-09-22T14:48:18.555Z,12.89
2022-09-22T14:50:47.662Z,13.28
2022-09-22T14:53:23.296Z,13.09
2022-09-22T14:55:53.922Z,12.62
2022-09-22T14:58:28.049Z,13.16
2022-09-22T15:01:24.244Z,12.86
2022-09-22T15:04:03.053Z,11.97
2022-09-22T15:06:38.321Z,13.03
2022-09-22T15:09:06.627Z,12.92
2022-09-22T15:11:48.902Z,12.91
2022-09-22T15:14:34.466Z,12.95
2022-09-22T15:17:20.876Z,12.84
2022-09-22T15:19:59.586Z,11.80
2022-09-22T15:22:27.917Z,12.66
2022-09-22T15:24:54.854Z,11.73
2022-09-22T15:27:21.942Z,9.86
2022-09-22T15:29:50.016Z,9.96
2022-09-22T15:32:16.939Z,11.78
2022-09-22T15:34:45.543Z,8.40
2022-09-22T15:37:20.847Z,9.43
2022-09-22T15:39:47.789Z,9.00
2022-09-22T15:42:14.897Z,11.51
2022-09-22T15:44:41.897Z,10.05
2022-09-22T15:47:17.329Z,12.23
2022-09-22T15:49:45.372Z,10.77
2022-09-22T15:52:12.336Z,10.78
2022-09-22T15:54:39.249Z,10.91
2022-09-22T15:57:06.708Z,11.50
2022-09-22T15:59:34.042Z,12.10
2022-09-22T16:02:02.114Z,8.93
2022-09-22T16:04:34.451Z,11.11
2022-09-22T16:07:08.670Z,12.02
2022-09-22T16:09:35.900Z,11.12
2022-09-22T16:12:03.609Z,11.65
2022-09-22T16:14:30.588Z,6.80
2022-09-22T16:16:57.555Z,11.25
2022-09-22T16:19:24.485Z,9.15
2022-09-22T16:21:54.705Z,12.01
2022-09-22T16:24:22.952Z,10.89
2022-09-22T16:26:52.013Z,8.76
2022-09-22T16:29:19.024Z,9.61
2022-09-22T16:31:46.230Z,9.93
2022-09-22T16:34:13.205Z,11.78
2022-09-22T16:36:42.068Z,11.74
2022-09-22T16:39:09.152Z,11.40
2022-09-22T16:41:37.111Z,10.22
2022-09-22T16:44:05.341Z,8.71
2022-09-22T16:46:38.199Z,6.21
2022-09-22T16:49:08.456Z,11.46
2022-09-22T16:51:40.417Z,10.15
2022-09-22T16:54:14.026Z,11.19
2022-09-22T16:56:46.536Z,11.81
2022-09-22T16:59:19.143Z,8.03
2022-09-22T17:01:46.738Z,9.25
2022-09-22T17:04:19.400Z,11.80
2022-09-22T17:06:47.335Z,9.77
2022-09-22T17:09:15.011Z,11.85
2022-09-22T17:11:45.611Z,9.90
2022-09-22T17:14:15.847Z,10.16
2022-09-22T17:16:52.304Z,3.78
2022-09-22T17:19:26.266Z,11.89
2022-09-22T17:21:55.738Z,8.92
2022-09-22T17:24:24.265Z,11.03
2022-09-22T17:26:53.683Z,11.60
2022-09-22T17:29:25.355Z,11.51
2022-09-22T17:32:00.210Z,10.12
2022-09-22T17:34:28.915Z,8.88
2022-09-22T17:36:56.938Z,11.40
2022-09-22T17:39:25.443Z,11.08
2022-09-22T17:41:52.623Z,11.38
2022-09-22T17:44:23.172Z,11.29
2022-09-22T17:47:10.673Z,11.28
2022-09-22T17:49:57.332Z,11.26
2022-09-22T17:52:33.546Z,10.76
2022-09-22T17:55:09.523Z,10.71
2022-09-22T17:57:42.115Z,7.43
2022-09-22T18:00:16.138Z,11.11
2022-09-22T18:02:43.933Z,7.82
2022-09-22T18:05:16.565Z,10.48
2022-09-22T18:07:44.064Z,10.92
2022-09-22T18:10:16.977Z,10.56
2022-09-22T18:12:44.558Z,10.90
2022-09-22T18:15:13.613Z,7.06
2022-09-22T18:17:42.307Z,8.65
2022-09-22T18:20:21.101Z,10.81
2022-09-22T18:22:49.512Z,9.00
2022-09-22T18:25:19.735Z,10.55
2022-09-22T18:27:48.777Z,10.64
2022-09-22T18:30:17.970Z,10.64
2022-09-22T18:32:44.988Z,5.02
2022-09-22T18:35:13.147Z,9.13
2022-09-22T18:37:40.614Z,10.56
2022-09-22T18:40:09.275Z,8.56
2022-09-22T18:42:37.022Z,10.06
2022-09-22T18:45:04.677Z,10.03
2022-09-22T18:47:31.636Z,6.66
2022-09-22T18:49:59.060Z,7.77
2022-09-22T18:52:26.048Z,9.44
2022-09-22T18:54:54.526Z,10.17
2022-09-22T18:57:23.771Z,9.31
2022-09-22T18:59:51.427Z,10.02
2022-09-22T19:02:23.264Z,9.63
2022-09-22T19:04:51.963Z,9.95
2022-09-22T19:07:42.006Z,7.21
2022-09-22T19:10:11.963Z,10.08
2022-09-22T19:12:41.891Z,8.08
2022-09-22T19:15:13.881Z,10.03
2022-09-22T19:17:45.738Z,10.01
2022-09-22T19:20:17.562Z,6.61
2022-09-22T19:22:45.175Z,9.52
2022-09-22T19:25:12.743Z,9.16
2022-09-22T19:27:43.035Z,9.88
2022-09-22T19:30:11.661Z,9.90
2022-09-22T19:32:39.663Z,8.91
2022-09-22T19:35:07.777Z,9.55
2022-09-22T19:37:34.948Z,7.88
2022-09-22T19:40:02.135Z,9.82
2022-09-22T19:42:29.387Z,9.72
2022-09-22T19:44:56.340Z,7.45
2022-09-22T19:47:24.105Z,3.56
2022-09-22T19:49:51.255Z,8.19
2022-09-22T19:52:18.339Z,8.80
2022-09-22T19:54:45.338Z,7.06
2022-09-22T19:57:13.484Z,7.78
2022-09-22T19:59:40.868Z,8.67
2022-09-22T20:02:15.331Z,8.19
2022-09-22T20:04:42.684Z,6.25
2022-09-22T20:07:11.206Z,7.46
2022-09-22T20:09:38.493Z,7.35
2022-09-22T20:12:06.075Z,9.48
2022-09-22T20:14:33.696Z,9.40
2022-09-22T20:17:03.639Z,9.39
2022-09-22T20:19:32.807Z,9.37
2022-09-22T20:22:28.685Z,9.36
2022-09-22T20:25:00.768Z,9.38
2022-09-22T20:27:33.494Z,9.38
2022-09-22T20:30:01.107Z,9.30
2022-09-22T20:32:32.400Z,9.32
2022-09-22T20:34:59.556Z,8.35
2022-09-22T20:37:26.595Z,8.48
2022-09-22T20:39:53.722Z,7.44
2022-09-22T20:42:20.894Z,8.64
2022-09-22T20:44:48.848Z,8.62
2022-09-22T20:47:18.335Z,9.32
2022-09-22T20:49:49.420Z,9.33
2022-09-22T20:52:20.478Z,9.02
2022-09-22T20:54:48.689Z,8.21
2022-09-22T20:57:15.904Z,8.39
2022-09-22T20:59:46.286Z,9.29
2022-09-22T21:02:14.900Z,9.27
2022-09-22T21:04:42.090Z,5.23
2022-09-22T21:07:09.761Z,9.24
2022-09-22T21:09:55.653Z,8.29
2022-09-22T21:12:28.589Z,9.31
2022-09-22T21:14:57.919Z,9.10
2022-09-22T21:17:25.594Z,9.35
2022-09-22T21:19:52.570Z,8.60
2022-09-22T21:22:19.757Z,7.09
2022-09-22T21:24:49.071Z,7.07
2022-09-22T21:27:16.177Z,5.46
2022-09-22T21:29:43.156Z,6.99
2022-09-22T21:32:10.308Z,7.50
2022-09-22T21:34:37.269Z,9.24
2022-09-22T21:37:05.345Z,7.80
2022-09-22T21:39:32.263Z,4.52
2022-09-22T21:41:59.270Z,9.24
2022-09-22T21:44:26.407Z,6.83
2022-09-22T21:46:54.582Z,7.26
2022-09-22T21:49:21.586Z,7.88
2022-09-22T21:51:48.760Z,7.83
2022-09-22T21:54:18.433Z,9.17
2022-09-22T21:56:46.182Z,6.37
2022-09-22T21:59:13.733Z,5.71
2022-09-22T22:01:46.869Z,5.96
2022-09-22T22:04:15.448Z,4.75
2022-09-22T22:06:44.641Z,8.87
2022-09-22T22:09:18.054Z,7.36
2022-09-22T22:11:53.642Z,9.12
2022-09-22T22:14:21.585Z,9.20
2022-09-22T22:16:50.978Z,9.12
2022-09-22T22:19:20.747Z,8.88
2022-09-22T22:21:50.556Z,9.11
2022-09-22T22:24:31.984Z,7.10
2022-09-22T22:27:01.952Z,7.38
2022-09-22T22:29:32.151Z,9.04
2022-09-22T22:31:59.537Z,8.99
2022-09-22T22:34:26.601Z,5.68
2022-09-22T22:36:55.379Z,8.72
2022-09-22T22:39:22.646Z,8.98
2022-09-22T22:41:49.630Z,8.26
2022-09-22T22:44:18.165Z,7.61
2022-09-22T22:46:45.787Z,4.48
2022-09-22T22:49:13.048Z,6.78
2022-09-22T22:51:40.603Z,6.26
2022-09-22T22:54:07.748Z,6.33
2022-09-22T22:56:34.773Z,5.31
2022-09-22T22:59:01.906Z,4.54
2022-09-22T23:01:31.250Z,8.79
2022-09-22T23:04:00.755Z,8.81
2022-09-22T23:06:36.408Z,7.97
2022-09-22T23:09:05.537Z,8.08
2022-09-22T23:11:37.693Z,8.71
2022-09-22T23:14:07.049Z,1.94
2022-09-22T23:16:39.193Z,8.66
2022-09-22T23:19:08.847Z,7.66
2022-09-22T23:21:36.832Z,8.62
2022-09-22T23:24:05.511Z,8.59
2022-09-22T23:26:32.706Z,8.18
2022-09-22T23:29:00.324Z,6.81
2022-09-22T23:31:28.245Z,8.40
2022-09-22T23:33:55.322Z,7.56
2022-09-22T23:36:27.139Z,3.85
2022-09-22T23:39:04.506Z,8.31
2022-09-22T23:41:34.174Z,8.24
2022-09-22T23:44:01.404Z,6.28
2022-09-22T23:46:28.361Z,7.74
2022-09-22T23:48:55.908Z,8.15
2022-09-22T23:51:23.403Z,4.36
2022-09-22T23:53:50.499Z,5.63
2022-09-22T23:56:17.586Z,7.66
2022-09-22T23:58:46.884Z,7.07
